sensor_id;sensor_type;location;lat;lon;timestamp;P1;durP1;ratioP1;P2;durP2;ratioP2
2544;SDS011;36212;48.838;9.142;2023-02-16T00:01:49;21.15;;;16.27;;
2544;SDS011;36212;48.838;9.142;2023-02-16T00:04:23;18.58;;;15.35;;
2544;SDS011;36212;48.838;9.142;2023-02-16T00:06:59;22.77;;;17.05;;
2544;SDS011;36212;48.838;9.142;2023-02-16T00:09:31;20.83;;;15.55;;
2544;SDS011;36212;48.838;9.142;2023-02-16T00:12:04;20.38;;;16.88;;
2544;SDS011;36212;48.838;9.142;2023-02-16T00:15:25;21.55;;;17.17;;
2544;SDS011;36212;48.838;9.142;2023-02-16T00:21:26;22.60;;;18.58;;
2544;SDS011;36212;48.838;9.142;2023-02-16T00:23:58;28.73;;;17.35;;
2544;SDS011;36212;48.838;9.142;2023-02-16T00:26:30;22.35;;;17.08;;
2544;SDS011;36212;48.838;9.142;2023-02-16T00:29:04;24.40;;;17.05;;
2544;SDS011;36212;48.838;9.142;2023-02-16T00:31:47;23.25;;;17.15;;
2544;SDS011;36212;48.838;9.142;2023-02-16T00:37:10;23.38;;;18.60;;
2544;SDS011;36212;48.838;9.142;2023-02-16T00:39:44;25.02;;;17.98;;
2544;SDS011;36212;48.838;9.142;2023-02-16T00:42:23;26.95;;;18.80;;
2544;SDS011;36212;48.838;9.142;2023-02-16T00:45:01;20.50;;;18.33;;
2544;SDS011;36212;48.838;9.142;2023-02-16T00:47:35;24.38;;;18.80;;
2544;SDS011;36212;48.838;9.142;2023-02-16T00:50:17;19.02;;;16.17;;
2544;SDS011;36212;48.838;9.142;2023-02-16T00:53:03;20.80;;;16.67;;
2544;SDS011;36212;48.838;9.142;2023-02-16T00:55:35;22.98;;;17.15;;
2544;SDS011;36212;48.838;9.142;2023-02-16T00:58:12;27.17;;;18.30;;
2544;SDS011;36212;48.838;9.142;2023-02-16T01:00:54;21.55;;;17.25;;
2544;SDS011;36212;48.838;9.142;2023-02-16T01:03:37;22.67;;;17.63;;
2544;SDS011;36212;48.838;9.142;2023-02-16T01:06:10;23.20;;;17.48;;
2544;SDS011;36212;48.838;9.142;2023-02-16T01:09:20;17.83;;;16.05;;
2544;SDS011;36212;48.838;9.142;2023-02-16T01:12:30;22.85;;;16.27;;
2544;SDS011;36212;48.838;9.142;2023-02-16T01:18:01;20.60;;;17.95;;
2544;SDS011;36212;48.838;9.142;2023-02-16T01:20:34;26.40;;;19.45;;
2544;SDS011;36212;48.838;9.142;2023-02-16T01:23:06;26.73;;;21.08;;
2544;SDS011;36212;48.838;9.142;2023-02-16T01:25:39;27.63;;;22.27;;
2544;SDS011;36212;48.838;9.142;2023-02-16T01:28:20;23.65;;;19.58;;
2544;SDS011;36212;48.838;9.142;2023-02-16T01:30:55;25.35;;;22.23;;
2544;SDS011;36212;48.838;9.142;2023-02-16T01:33:27;27.58;;;18.92;;
2544;SDS011;36212;48.838;9.142;2023-02-16T01:35:59;29.58;;;21.80;;
2544;SDS011;36212;48.838;9.142;2023-02-16T01:38:33;25.33;;;20.77;;
2544;SDS011;36212;48.838;9.142;2023-02-16T01:41:19;25.30;;;20.60;;
2544;SDS011;36212;48.838;9.142;2023-02-16T01:44:10;23.80;;;19.65;;
2544;SDS011;36212;48.838;9.142;2023-02-16T01:49:36;24.02;;;20.58;;
2544;SDS011;36212;48.838;9.142;2023-02-16T01:55:42;22.20;;;17.08;;
2544;SDS011;36212;48.838;9.142;2023-02-16T02:04:11;22.25;;;18.90;;
2544;SDS011;36212;48.838;9.142;2023-02-16T02:07:40;25.75;;;18.17;;
2544;SDS011;36212;48.838;9.142;2023-02-16T02:13:51;21.40;;;16.73;;
2544;SDS011;36212;48.838;9.142;2023-02-16T02:16:32;23.08;;;17.70;;
2544;SDS011;36212;48.838;9.142;2023-02-16T02:19:04;23.40;;;17.45;;
2544;SDS011;36212;48.838;9.142;2023-02-16T02:21:49;24.80;;;17.85;;
2544;SDS011;36212;48.838;9.142;2023-02-16T02:35:46;23.80;;;17.70;;
2544;SDS011;36212;48.838;9.142;2023-02-16T02:41:53;22.92;;;20.13;;
2544;SDS011;36212;48.838;9.142;2023-02-16T02:44:56;27.98;;;19.40;;
2544;SDS011;36212;48.838;9.142;2023-02-16T02:47:46;22.40;;;18.70;;
2544;SDS011;36212;48.838;9.142;2023-02-16T02:53:17;23.17;;;18.13;;
2544;SDS011;36212;48.838;9.142;2023-02-16T02:55:49;23.10;;;19.92;;
2544;SDS011;36212;48.838;9.142;2023-02-16T02:59:02;28.25;;;18.95;;
2544;SDS011;36212;48.838;9.142;2023-02-16T03:02:17;27.30;;;18.25;;
2544;SDS011;36212;48.838;9.142;2023-02-16T03:04:52;26.33;;;18.27;;
2544;SDS011;36212;48.838;9.142;2023-02-16T03:07:28;24.88;;;18.25;;
2544;SDS011;36212;48.838;9.142;2023-02-16T03:10:22;20.85;;;16.85;;
2544;SDS011;36212;48.838;9.142;2023-02-16T03:13:42;23.63;;;16.67;;
2544;SDS011;36212;48.838;9.142;2023-02-16T03:16:30;26.90;;;18.38;;
2544;SDS011;36212;48.838;9.142;2023-02-16T03:19:14;25.42;;;18.70;;
2544;SDS011;36212;48.838;9.142;2023-02-16T03:22:27;23.63;;;16.45;;
2544;SDS011;36212;48.838;9.142;2023-02-16T03:25:38;28.15;;;17.17;;
2544;SDS011;36212;48.838;9.142;2023-02-16T03:28:49;21.77;;;16.92;;
2544;SDS011;36212;48.838;9.142;2023-02-16T03:31:49;28.95;;;15.88;;
2544;SDS011;36212;48.838;9.142;2023-02-16T03:34:24;22.23;;;17.50;;
2544;SDS011;36212;48.838;9.142;2023-02-16T03:36:58;28.92;;;17.35;;
2544;SDS011;36212;48.838;9.142;2023-02-16T03:39:31;20.95;;;16.80;;
2544;SDS011;36212;48.838;9.142;2023-02-16T03:42:47;24.88;;;18.15;;
2544;SDS011;36212;48.838;9.142;2023-02-16T03:45:20;22.92;;;17.38;;
2544;SDS011;36212;48.838;9.142;2023-02-16T03:47:55;23.20;;;16.88;;
2544;SDS011;36212;48.838;9.142;2023-02-16T03:50:27;25.55;;;18.40;;
2544;SDS011;36212;48.838;9.142;2023-02-16T03:53:00;22.33;;;18.08;;
2544;SDS011;36212;48.838;9.142;2023-02-16T03:55:40;20.38;;;17.75;;
2544;SDS011;36212;48.838;9.142;2023-02-16T03:58:17;22.77;;;16.98;;
2544;SDS011;36212;48.838;9.142;2023-02-16T04:00:52;19.85;;;15.43;;
2544;SDS011;36212;48.838;9.142;2023-02-16T04:03:25;19.05;;;16.70;;
2544;SDS011;36212;48.838;9.142;2023-02-16T04:05:57;21.52;;;17.50;;
2544;SDS011;36212;48.838;9.142;2023-02-16T04:08:30;24.15;;;16.17;;
2544;SDS011;36212;48.838;9.142;2023-02-16T04:14:45;22.40;;;16.63;;
2544;SDS011;36212;48.838;9.142;2023-02-16T04:17:17;25.20;;;17.83;;
2544;SDS011;36212;48.838;9.142;2023-02-16T04:19:49;19.88;;;17.33;;
2544;SDS011;36212;48.838;9.142;2023-02-16T04:22:21;23.05;;;17.30;;
2544;SDS011;36212;48.838;9.142;2023-02-16T04:24:53;19.17;;;16.92;;
2544;SDS011;36212;48.838;9.142;2023-02-16T04:27:25;23.67;;;18.20;;
2544;SDS011;36212;48.838;9.142;2023-02-16T04:29:57;26.63;;;19.10;;
2544;SDS011;36212;48.838;9.142;2023-02-16T04:32:29;19.98;;;15.18;;
2544;SDS011;36212;48.838;9.142;2023-02-16T04:35:01;20.27;;;16.77;;
2544;SDS011;36212;48.838;9.142;2023-02-16T04:37:34;31.40;;;18.52;;
2544;SDS011;36212;48.838;9.142;2023-02-16T04:40:07;26.42;;;18.40;;
2544;SDS011;36212;48.838;9.142;2023-02-16T04:42:44;18.73;;;15.85;;
2544;SDS011;36212;48.838;9.142;2023-02-16T04:45:17;22.00;;;17.63;;
2544;SDS011;36212;48.838;9.142;2023-02-16T04:47:49;24.90;;;17.70;;
2544;SDS011;36212;48.838;9.142;2023-02-16T04:50:21;26.63;;;16.40;;
2544;SDS011;36212;48.838;9.142;2023-02-16T04:52:53;27.67;;;18.35;;
2544;SDS011;36212;48.838;9.142;2023-02-16T04:55:25;21.50;;;17.17;;
2544;SDS011;36212;48.838;9.142;2023-02-16T04:57:58;22.58;;;18.23;;
2544;SDS011;36212;48.838;9.142;2023-02-16T05:00:30;21.45;;;15.98;;
2544;SDS011;36212;48.838;9.142;2023-02-16T05:03:10;21.30;;;16.17;;
2544;SDS011;36212;48.838;9.142;2023-02-16T05:05:42;26.83;;;19.20;;
2544;SDS011;36212;48.838;9.142;2023-02-16T05:08:14;25.25;;;16.80;;
2544;SDS011;36212;48.838;9.142;2023-02-16T05:10:46;26.38;;;18.25;;
2544;SDS011;36212;48.838;9.142;2023-02-16T05:13:58;28.55;;;17.88;;
2544;SDS011;36212;48.838;9.142;2023-02-16T05:20:04;22.75;;;18.05;;
2544;SDS011;36212;48.838;9.142;2023-02-16T05:22:37;28.30;;;19.08;;
2544;SDS011;36212;48.838;9.142;2023-02-16T05:25:09;25.20;;;17.88;;
2544;SDS011;36212;48.838;9.142;2023-02-16T05:27:42;21.05;;;16.85;;
2544;SDS011;36212;48.838;9.142;2023-02-16T05:30:14;26.25;;;19.30;;
2544;SDS011;36212;48.838;9.142;2023-02-16T05:32:46;19.70;;;17.10;;
2544;SDS011;36212;48.838;9.142;2023-02-16T05:35:18;21.38;;;17.27;;
2544;SDS011;36212;48.838;9.142;2023-02-16T05:37:50;20.15;;;17.05;;
2544;SDS011;36212;48.838;9.142;2023-02-16T05:40:22;26.30;;;18.00;;
2544;SDS011;36212;48.838;9.142;2023-02-16T05:42:54;22.75;;;16.38;;
2544;SDS011;36212;48.838;9.142;2023-02-16T05:45:27;21.73;;;18.50;;
2544;SDS011;36212;48.838;9.142;2023-02-16T05:47:59;24.60;;;18.92;;
2544;SDS011;36212;48.838;9.142;2023-02-16T05:50:31;23.38;;;18.80;;
2544;SDS011;36212;48.838;9.142;2023-02-16T05:53:03;24.58;;;17.65;;
2544;SDS011;36212;48.838;9.142;2023-02-16T05:55:35;19.67;;;17.35;;
2544;SDS011;36212;48.838;9.142;2023-02-16T05:58:07;24.33;;;16.77;;
2544;SDS011;36212;48.838;9.142;2023-02-16T06:00:39;21.77;;;17.08;;
2544;SDS011;36212;48.838;9.142;2023-02-16T06:03:11;25.13;;;17.35;;
2544;SDS011;36212;48.838;9.142;2023-02-16T06:05:43;21.88;;;18.02;;
2544;SDS011;36212;48.838;9.142;2023-02-16T06:08:15;25.27;;;16.20;;
2544;SDS011;36212;48.838;9.142;2023-02-16T06:10:48;24.13;;;17.98;;
2544;SDS011;36212;48.838;9.142;2023-02-16T06:13:21;18.10;;;15.65;;
2544;SDS011;36212;48.838;9.142;2023-02-16T06:15:54;19.67;;;17.50;;
2544;SDS011;36212;48.838;9.142;2023-02-16T06:18:27;24.67;;;16.48;;
2544;SDS011;36212;48.838;9.142;2023-02-16T06:20:59;22.17;;;15.98;;
2544;SDS011;36212;48.838;9.142;2023-02-16T06:23:31;24.60;;;16.40;;
2544;SDS011;36212;48.838;9.142;2023-02-16T06:26:03;19.02;;;16.35;;
2544;SDS011;36212;48.838;9.142;2023-02-16T06:28:36;20.83;;;14.07;;
2544;SDS011;36212;48.838;9.142;2023-02-16T06:31:08;21.98;;;15.57;;
2544;SDS011;36212;48.838;9.142;2023-02-16T06:33:40;21.02;;;16.63;;
2544;SDS011;36212;48.838;9.142;2023-02-16T06:36:14;25.77;;;16.50;;
2544;SDS011;36212;48.838;9.142;2023-02-16T06:38:46;17.25;;;14.55;;
2544;SDS011;36212;48.838;9.142;2023-02-16T06:41:18;17.95;;;15.18;;
2544;SDS011;36212;48.838;9.142;2023-02-16T06:44:10;21.05;;;15.57;;
2544;SDS011;36212;48.838;9.142;2023-02-16T06:46:46;18.85;;;15.18;;
2544;SDS011;36212;48.838;9.142;2023-02-16T06:49:19;19.17;;;16.10;;
2544;SDS011;36212;48.838;9.142;2023-02-16T06:51:51;24.55;;;16.42;;
2544;SDS011;36212;48.838;9.142;2023-02-16T06:54:23;20.45;;;15.70;;
2544;SDS011;36212;48.838;9.142;2023-02-16T06:56:55;20.75;;;15.50;;
2544;SDS011;36212;48.838;9.142;2023-02-16T06:59:27;20.27;;;15.27;;
2544;SDS011;36212;48.838;9.142;2023-02-16T07:01:59;18.65;;;16.02;;
2544;SDS011;36212;48.838;9.142;2023-02-16T07:04:32;19.17;;;15.15;;
2544;SDS011;36212;48.838;9.142;2023-02-16T07:07:04;21.27;;;15.90;;
2544;SDS011;36212;48.838;9.142;2023-02-16T07:09:36;23.33;;;17.95;;
2544;SDS011;36212;48.838;9.142;2023-02-16T07:12:08;20.85;;;17.13;;
2544;SDS011;36212;48.838;9.142;2023-02-16T07:14:40;25.30;;;17.92;;
2544;SDS011;36212;48.838;9.142;2023-02-16T07:17:23;19.42;;;16.30;;
2544;SDS011;36212;48.838;9.142;2023-02-16T07:19:55;26.95;;;17.90;;
2544;SDS011;36212;48.838;9.142;2023-02-16T07:22:31;22.95;;;18.08;;
2544;SDS011;36212;48.838;9.142;2023-02-16T07:25:03;20.15;;;17.15;;
2544;SDS011;36212;48.838;9.142;2023-02-16T07:27:35;24.13;;;17.98;;
2544;SDS011;36212;48.838;9.142;2023-02-16T07:30:08;22.92;;;18.27;;
2544;SDS011;36212;48.838;9.142;2023-02-16T07:32:42;19.50;;;17.40;;
2544;SDS011;36212;48.838;9.142;2023-02-16T07:35:14;17.40;;;15.85;;
2544;SDS011;36212;48.838;9.142;2023-02-16T07:37:47;24.48;;;18.25;;
2544;SDS011;36212;48.838;9.142;2023-02-16T07:40:19;20.70;;;16.65;;
2544;SDS011;36212;48.838;9.142;2023-02-16T07:42:51;20.98;;;15.85;;
2544;SDS011;36212;48.838;9.142;2023-02-16T07:45:23;26.23;;;18.77;;
2544;SDS011;36212;48.838;9.142;2023-02-16T07:47:57;21.67;;;17.35;;
2544;SDS011;36212;48.838;9.142;2023-02-16T07:50:30;19.25;;;17.17;;
2544;SDS011;36212;48.838;9.142;2023-02-16T07:53:02;21.67;;;16.63;;
2544;SDS011;36212;48.838;9.142;2023-02-16T07:55:42;20.55;;;17.85;;
2544;SDS011;36212;48.838;9.142;2023-02-16T07:58:15;21.17;;;18.52;;
2544;SDS011;36212;48.838;9.142;2023-02-16T08:01:11;21.08;;;16.88;;
2544;SDS011;36212;48.838;9.142;2023-02-16T08:03:46;19.70;;;17.05;;
2544;SDS011;36212;48.838;9.142;2023-02-16T08:06:19;20.55;;;17.55;;
2544;SDS011;36212;48.838;9.142;2023-02-16T08:08:51;21.13;;;16.77;;
2544;SDS011;36212;48.838;9.142;2023-02-16T08:11:26;23.98;;;17.52;;
2544;SDS011;36212;48.838;9.142;2023-02-16T08:13:58;22.00;;;17.75;;
2544;SDS011;36212;48.838;9.142;2023-02-16T08:16:30;19.80;;;17.17;;
2544;SDS011;36212;48.838;9.142;2023-02-16T08:19:02;21.27;;;16.27;;
2544;SDS011;36212;48.838;9.142;2023-02-16T08:21:35;19.67;;;17.40;;
2544;SDS011;36212;48.838;9.142;2023-02-16T08:24:10;22.98;;;18.40;;
2544;SDS011;36212;48.838;9.142;2023-02-16T08:26:56;21.88;;;18.02;;
2544;SDS011;36212;48.838;9.142;2023-02-16T08:29:29;22.02;;;18.05;;
2544;SDS011;36212;48.838;9.142;2023-02-16T08:32:02;22.98;;;19.63;;
2544;SDS011;36212;48.838;9.142;2023-02-16T08:34:40;22.23;;;17.90;;
2544;SDS011;36212;48.838;9.142;2023-02-16T08:37:14;23.55;;;19.33;;
2544;SDS011;36212;48.838;9.142;2023-02-16T08:39:46;24.30;;;18.90;;
2544;SDS011;36212;48.838;9.142;2023-02-16T08:42:19;21.92;;;19.50;;
2544;SDS011;36212;48.838;9.142;2023-02-16T08:44:51;24.52;;;19.30;;
2544;SDS011;36212;48.838;9.142;2023-02-16T08:47:25;27.85;;;18.42;;
2544;SDS011;36212;48.838;9.142;2023-02-16T08:49:58;47.03;;;19.20;;
2544;SDS011;36212;48.838;9.142;2023-02-16T08:52:31;35.03;;;20.33;;
2544;SDS011;36212;48.838;9.142;2023-02-16T08:55:03;26.15;;;19.17;;
2544;SDS011;36212;48.838;9.142;2023-02-16T08:57:36;30.88;;;19.90;;
2544;SDS011;36212;48.838;9.142;2023-02-16T09:00:08;28.17;;;20.55;;
2544;SDS011;36212;48.838;9.142;2023-02-16T09:03:07;21.02;;;17.65;;
2544;SDS011;36212;48.838;9.142;2023-02-16T09:05:40;24.45;;;21.15;;
2544;SDS011;36212;48.838;9.142;2023-02-16T09:10:52;21.13;;;18.00;;
2544;SDS011;36212;48.838;9.142;2023-02-16T09:13:25;19.90;;;17.80;;
2544;SDS011;36212;48.838;9.142;2023-02-16T09:16:01;25.17;;;18.25;;
2544;SDS011;36212;48.838;9.142;2023-02-16T09:18:38;20.90;;;18.73;;
2544;SDS011;36212;48.838;9.142;2023-02-16T09:21:21;20.38;;;17.00;;
2544;SDS011;36212;48.838;9.142;2023-02-16T09:23:56;20.95;;;17.52;;
2544;SDS011;36212;48.838;9.142;2023-02-16T09:26:32;24.17;;;17.58;;
2544;SDS011;36212;48.838;9.142;2023-02-16T09:29:09;23.73;;;17.70;;
2544;SDS011;36212;48.838;9.142;2023-02-16T09:35:54;19.02;;;16.98;;
2544;SDS011;36212;48.838;9.142;2023-02-16T09:38:26;23.83;;;18.00;;
2544;SDS011;36212;48.838;9.142;2023-02-16T09:41:04;21.70;;;16.90;;
2544;SDS011;36212;48.838;9.142;2023-02-16T09:47:30;18.67;;;15.35;;
2544;SDS011;36212;48.838;9.142;2023-02-16T09:55:40;21.67;;;15.85;;
2544;SDS011;36212;48.838;9.142;2023-02-16T09:58:32;16.90;;;15.05;;
2544;SDS011;36212;48.838;9.142;2023-02-16T10:04:47;16.85;;;14.02;;
2544;SDS011;36212;48.838;9.142;2023-02-16T10:13:45;20.55;;;14.25;;
2544;SDS011;36212;48.838;9.142;2023-02-16T10:16:31;18.85;;;15.73;;
2544;SDS011;36212;48.838;9.142;2023-02-16T10:19:20;15.88;;;13.63;;
2544;SDS011;36212;48.838;9.142;2023-02-16T10:22:12;17.13;;;13.55;;
2544;SDS011;36212;48.838;9.142;2023-02-16T10:25:01;17.38;;;14.45;;
2544;SDS011;36212;48.838;9.142;2023-02-16T10:27:43;16.23;;;12.68;;
2544;SDS011;36212;48.838;9.142;2023-02-16T10:30:28;18.30;;;14.77;;
2544;SDS011;36212;48.838;9.142;2023-02-16T10:33:48;21.10;;;14.18;;
2544;SDS011;36212;48.838;9.142;2023-02-16T10:39:40;14.70;;;11.95;;
2544;SDS011;36212;48.838;9.142;2023-02-16T10:46:14;11.43;;;9.38;;
2544;SDS011;36212;48.838;9.142;2023-02-16T10:48:54;15.18;;;10.07;;
2544;SDS011;36212;48.838;9.142;2023-02-16T10:51:32;15.25;;;10.77;;
2544;SDS011;36212;48.838;9.142;2023-02-16T10:54:13;11.45;;;10.02;;
2544;SDS011;36212;48.838;9.142;2023-02-16T10:57:05;14.45;;;10.65;;
2544;SDS011;36212;48.838;9.142;2023-02-16T10:59:55;13.55;;;9.95;;
2544;SDS011;36212;48.838;9.142;2023-02-16T11:02:37;10.93;;;9.10;;
2544;SDS011;36212;48.838;9.142;2023-02-16T11:08:07;8.00;;;7.30;;
2544;SDS011;36212;48.838;9.142;2023-02-16T11:10:45;8.00;;;7.22;;
2544;SDS011;36212;48.838;9.142;2023-02-16T11:19:20;6.10;;;5.53;;
2544;SDS011;36212;48.838;9.142;2023-02-16T11:21:55;6.55;;;5.93;;
2544;SDS011;36212;48.838;9.142;2023-02-16T11:24:30;10.00;;;6.30;;
2544;SDS011;36212;48.838;9.142;2023-02-16T11:27:24;6.45;;;5.63;;
2544;SDS011;36212;48.838;9.142;2023-02-16T11:30:57;7.88;;;6.38;;
2544;SDS011;36212;48.838;9.142;2023-02-16T11:33:19;6.95;;;6.30;;
2544;SDS011;36212;48.838;9.142;2023-02-16T11:35:55;7.22;;;6.55;;
2544;SDS011;36212;48.838;9.142;2023-02-16T11:38:29;6.95;;;6.25;;
2544;SDS011;36212;48.838;9.142;2023-02-16T11:41:05;8.63;;;7.00;;
2544;SDS011;36212;48.838;9.142;2023-02-16T11:43:38;9.35;;;7.47;;
2544;SDS011;36212;48.838;9.142;2023-02-16T11:49:26;8.30;;;7.32;;
2544;SDS011;36212;48.838;9.142;2023-02-16T11:54:59;7.43;;;6.63;;
2544;SDS011;36212;48.838;9.142;2023-02-16T11:57:53;8.68;;;7.28;;
2544;SDS011;36212;48.838;9.142;2023-02-16T12:04:18;7.70;;;6.75;;
2544;SDS011;36212;48.838;9.142;2023-02-16T12:10:50;6.20;;;5.63;;
2544;SDS011;36212;48.838;9.142;2023-02-16T12:17:11;6.35;;;5.85;;
2544;SDS011;36212;48.838;9.142;2023-02-16T12:20:35;6.68;;;6.10;;
2544;SDS011;36212;48.838;9.142;2023-02-16T12:27:02;8.13;;;6.68;;
2544;SDS011;36212;48.838;9.142;2023-02-16T12:36:01;7.30;;;6.60;;
2544;SDS011;36212;48.838;9.142;2023-02-16T12:45:19;7.60;;;6.60;;
2544;SDS011;36212;48.838;9.142;2023-02-16T12:51:14;7.60;;;7.00;;
2544;SDS011;36212;48.838;9.142;2023-02-16T12:54:30;10.27;;;7.50;;
2544;SDS011;36212;48.838;9.142;2023-02-16T12:57:09;9.23;;;7.60;;
2544;SDS011;36212;48.838;9.142;2023-02-16T12:59:52;8.83;;;6.90;;
2544;SDS011;36212;48.838;9.142;2023-02-16T13:02:40;7.47;;;6.65;;
2544;SDS011;36212;48.838;9.142;2023-02-16T13:05:22;7.68;;;6.97;;
2544;SDS011;36212;48.838;9.142;2023-02-16T13:11:24;9.50;;;8.20;;
2544;SDS011;36212;48.838;9.142;2023-02-16T13:14:14;9.67;;;7.80;;
2544;SDS011;36212;48.838;9.142;2023-02-16T13:16:56;7.93;;;7.20;;
2544;SDS011;36212;48.838;9.142;2023-02-16T13:19:40;7.43;;;6.67;;
2544;SDS011;36212;48.838;9.142;2023-02-16T13:22:36;10.33;;;7.30;;
2544;SDS011;36212;48.838;9.142;2023-02-16T13:32:12;9.37;;;8.40;;
2544;SDS011;36212;48.838;9.142;2023-02-16T13:44:41;8.95;;;7.90;;
2544;SDS011;36212;48.838;9.142;2023-02-16T13:47:26;10.43;;;8.32;;
2544;SDS011;36212;48.838;9.142;2023-02-16T13:50:19;10.50;;;8.70;;
2544;SDS011;36212;48.838;9.142;2023-02-16T13:53:09;9.48;;;8.07;;
2544;SDS011;36212;48.838;9.142;2023-02-16T13:56:41;9.45;;;8.13;;
2544;SDS011;36212;48.838;9.142;2023-02-16T14:02:11;8.70;;;7.85;;
2544;SDS011;36212;48.838;9.142;2023-02-16T14:05:07;12.80;;;9.70;;
2544;SDS011;36212;48.838;9.142;2023-02-16T14:08:10;12.02;;;8.80;;
2544;SDS011;36212;48.838;9.142;2023-02-16T14:13:31;9.77;;;7.68;;
2544;SDS011;36212;48.838;9.142;2023-02-16T14:21:54;7.15;;;6.10;;
2544;SDS011;36212;48.838;9.142;2023-02-16T14:24:38;11.32;;;6.85;;
2544;SDS011;36212;48.838;9.142;2023-02-16T14:33:45;8.65;;;6.75;;
2544;SDS011;36212;48.838;9.142;2023-02-16T14:36:33;7.22;;;6.45;;
2544;SDS011;36212;48.838;9.142;2023-02-16T14:39:25;8.02;;;6.88;;
2544;SDS011;36212;48.838;9.142;2023-02-16T14:42:15;11.85;;;6.57;;
2544;SDS011;36212;48.838;9.142;2023-02-16T14:45:18;8.52;;;6.57;;
2544;SDS011;36212;48.838;9.142;2023-02-16T15:01:37;6.30;;;5.78;;
2544;SDS011;36212;48.838;9.142;2023-02-16T15:04:24;7.57;;;5.05;;
2544;SDS011;36212;48.838;9.142;2023-02-16T15:07:03;9.98;;;6.47;;
2544;SDS011;36212;48.838;9.142;2023-02-16T15:09:39;6.30;;;5.80;;
2544;SDS011;36212;48.838;9.142;2023-02-16T15:12:14;6.00;;;5.47;;
2544;SDS011;36212;48.838;9.142;2023-02-16T15:14:57;8.00;;;5.70;;
2544;SDS011;36212;48.838;9.142;2023-02-16T15:17:38;6.47;;;5.88;;
2544;SDS011;36212;48.838;9.142;2023-02-16T15:20:28;8.10;;;6.43;;
2544;SDS011;36212;48.838;9.142;2023-02-16T15:23:15;6.25;;;5.75;;
2544;SDS011;36212;48.838;9.142;2023-02-16T15:25:55;5.90;;;5.30;;
2544;SDS011;36212;48.838;9.142;2023-02-16T15:28:57;5.20;;;4.70;;
2544;SDS011;36212;48.838;9.142;2023-02-16T15:31:49;5.60;;;5.13;;
2544;SDS011;36212;48.838;9.142;2023-02-16T15:34:27;4.80;;;4.35;;
2544;SDS011;36212;48.838;9.142;2023-02-16T15:37:23;4.43;;;3.95;;
2544;SDS011;36212;48.838;9.142;2023-02-16T15:40:13;6.05;;;3.70;;
2544;SDS011;36212;48.838;9.142;2023-02-16T15:43:04;3.97;;;3.40;;
2544;SDS011;36212;48.838;9.142;2023-02-16T15:46:06;3.80;;;3.50;;
2544;SDS011;36212;48.838;9.142;2023-02-16T15:49:26;7.25;;;3.47;;
2544;SDS011;36212;48.838;9.142;2023-02-16T15:52:12;4.32;;;4.03;;
2544;SDS011;36212;48.838;9.142;2023-02-16T15:55:03;3.53;;;3.22;;
2544;SDS011;36212;48.838;9.142;2023-02-16T15:57:40;3.60;;;3.30;;
2544;SDS011;36212;48.838;9.142;2023-02-16T16:02:52;4.50;;;4.13;;
2544;SDS011;36212;48.838;9.142;2023-02-16T16:05:30;4.57;;;3.40;;
2544;SDS011;36212;48.838;9.142;2023-02-16T16:08:21;4.38;;;3.90;;
2544;SDS011;36212;48.838;9.142;2023-02-16T16:10:59;4.75;;;3.78;;
2544;SDS011;36212;48.838;9.142;2023-02-16T16:13:31;5.43;;;3.50;;
2544;SDS011;36212;48.838;9.142;2023-02-16T16:16:06;5.47;;;3.63;;
2544;SDS011;36212;48.838;9.142;2023-02-16T16:21:22;4.75;;;4.10;;
2544;SDS011;36212;48.838;9.142;2023-02-16T16:24:29;4.13;;;3.70;;
2544;SDS011;36212;48.838;9.142;2023-02-16T16:27:09;3.80;;;3.47;;
2544;SDS011;36212;48.838;9.142;2023-02-16T16:29:45;4.35;;;4.00;;
2544;SDS011;36212;48.838;9.142;2023-02-16T16:32:22;6.15;;;4.90;;
2544;SDS011;36212;48.838;9.142;2023-02-16T16:38:32;4.88;;;4.30;;
2544;SDS011;36212;48.838;9.142;2023-02-16T16:41:24;5.68;;;5.18;;
2544;SDS011;36212;48.838;9.142;2023-02-16T16:43:58;4.90;;;4.45;;
2544;SDS011;36212;48.838;9.142;2023-02-16T16:46:40;5.95;;;4.20;;
2544;SDS011;36212;48.838;9.142;2023-02-16T16:49:12;4.43;;;4.00;;
2544;SDS011;36212;48.838;9.142;2023-02-16T16:51:50;5.63;;;4.82;;
2544;SDS011;36212;48.838;9.142;2023-02-16T16:54:32;5.82;;;5.22;;
2544;SDS011;36212;48.838;9.142;2023-02-16T16:57:12;4.45;;;4.15;;
2544;SDS011;36212;48.838;9.142;2023-02-16T16:59:48;5.38;;;4.60;;
2544;SDS011;36212;48.838;9.142;2023-02-16T17:02:20;5.25;;;4.38;;
2544;SDS011;36212;48.838;9.142;2023-02-16T17:04:53;4.45;;;4.05;;
2544;SDS011;36212;48.838;9.142;2023-02-16T17:07:25;4.72;;;4.20;;
2544;SDS011;36212;48.838;9.142;2023-02-16T17:09:58;4.32;;;3.90;;
2544;SDS011;36212;48.838;9.142;2023-02-16T17:12:31;4.82;;;4.28;;
2544;SDS011;36212;48.838;9.142;2023-02-16T17:15:04;5.18;;;4.63;;
2544;SDS011;36212;48.838;9.142;2023-02-16T17:17:54;7.90;;;4.78;;
2544;SDS011;36212;48.838;9.142;2023-02-16T17:20:27;4.25;;;3.95;;
2544;SDS011;36212;48.838;9.142;2023-02-16T17:23:01;4.53;;;4.15;;
2544;SDS011;36212;48.838;9.142;2023-02-16T17:25:35;5.10;;;4.60;;
2544;SDS011;36212;48.838;9.142;2023-02-16T17:28:09;5.32;;;4.45;;
2544;SDS011;36212;48.838;9.142;2023-02-16T17:30:43;5.55;;;5.05;;
2544;SDS011;36212;48.838;9.142;2023-02-16T17:33:16;4.18;;;3.88;;
2544;SDS011;36212;48.838;9.142;2023-02-16T17:35:49;5.25;;;4.80;;
2544;SDS011;36212;48.838;9.142;2023-02-16T17:38:22;5.00;;;4.60;;
2544;SDS011;36212;48.838;9.142;2023-02-16T17:40:58;5.28;;;4.78;;
2544;SDS011;36212;48.838;9.142;2023-02-16T17:43:34;5.05;;;4.20;;
2544;SDS011;36212;48.838;9.142;2023-02-16T17:46:06;4.93;;;3.90;;
2544;SDS011;36212;48.838;9.142;2023-02-16T17:48:40;9.30;;;6.22;;
2544;SDS011;36212;48.838;9.142;2023-02-16T17:51:14;5.32;;;4.90;;
2544;SDS011;36212;48.838;9.142;2023-02-16T17:53:50;6.53;;;5.72;;
2544;SDS011;36212;48.838;9.142;2023-02-16T17:59:18;6.40;;;5.90;;
2544;SDS011;36212;48.838;9.142;2023-02-16T18:01:50;4.88;;;4.47;;
2544;SDS011;36212;48.838;9.142;2023-02-16T18:04:23;9.35;;;5.93;;
2544;SDS011;36212;48.838;9.142;2023-02-16T18:06:56;9.15;;;7.00;;
2544;SDS011;36212;48.838;9.142;2023-02-16T18:09:28;9.40;;;6.60;;
2544;SDS011;36212;48.838;9.142;2023-02-16T18:12:02;8.13;;;6.80;;
2544;SDS011;36212;48.838;9.142;2023-02-16T18:14:36;7.00;;;6.28;;
2544;SDS011;36212;48.838;9.142;2023-02-16T18:17:09;6.80;;;6.20;;
2544;SDS011;36212;48.838;9.142;2023-02-16T18:19:43;10.27;;;7.05;;
2544;SDS011;36212;48.838;9.142;2023-02-16T18:22:15;6.95;;;6.35;;
2544;SDS011;36212;48.838;9.142;2023-02-16T18:24:49;7.20;;;6.60;;
2544;SDS011;36212;48.838;9.142;2023-02-16T18:27:24;8.00;;;7.20;;
2544;SDS011;36212;48.838;9.142;2023-02-16T18:29:59;8.55;;;7.75;;
2544;SDS011;36212;48.838;9.142;2023-02-16T18:32:32;12.90;;;10.25;;
2544;SDS011;36212;48.838;9.142;2023-02-16T18:35:05;13.88;;;11.75;;
2544;SDS011;36212;48.838;9.142;2023-02-16T18:37:38;12.02;;;9.80;;
2544;SDS011;36212;48.838;9.142;2023-02-16T18:40:14;11.45;;;10.35;;
2544;SDS011;36212;48.838;9.142;2023-02-16T18:42:49;11.05;;;10.00;;
2544;SDS011;36212;48.838;9.142;2023-02-16T18:45:22;12.13;;;11.00;;
2544;SDS011;36212;48.838;9.142;2023-02-16T18:47:55;11.93;;;9.82;;
2544;SDS011;36212;48.838;9.142;2023-02-16T18:50:27;11.38;;;10.30;;
2544;SDS011;36212;48.838;9.142;2023-02-16T18:53:00;13.65;;;10.73;;
2544;SDS011;36212;48.838;9.142;2023-02-16T18:55:33;9.63;;;8.75;;
2544;SDS011;36212;48.838;9.142;2023-02-16T18:58:06;10.30;;;9.30;;
2544;SDS011;36212;48.838;9.142;2023-02-16T19:00:41;10.38;;;9.38;;
2544;SDS011;36212;48.838;9.142;2023-02-16T19:03:15;10.10;;;8.52;;
2544;SDS011;36212;48.838;9.142;2023-02-16T19:08:52;9.43;;;8.52;;
2544;SDS011;36212;48.838;9.142;2023-02-16T19:11:28;9.20;;;8.40;;